sensor_id;sensor_type;location;lat;lon;timestamp;pressure;altitude;pressure_sealevel;temperature;humidity
48624;BME280;34422;45.802;16.114;2023-11-21T00:01:06;64564.63;;;7.28;100.00
48624;BME280;34422;45.802;16.114;2023-11-21T00:03:35;64557.63;;;7.19;100.00
48624;BME280;34422;45.802;16.114;2023-11-21T00:06:02;64567.31;;;7.30;100.00
48624;BME280;34422;45.802;16.114;2023-11-21T00:08:29;64574.84;;;7.37;100.00
48624;BME280;34422;45.802;16.114;2023-11-21T00:10:57;64568.91;;;7.29;100.00
48624;BME280;34422;45.802;16.114;2023-11-21T00:13:27;64589.28;;;7.46;100.00
48624;BME280;34422;45.802;16.114;2023-11-21T00:15:54;64585.56;;;7.47;100.00
48624;BME280;34422;45.802;16.114;2023-11-21T00:18:21;64585.56;;;7.47;100.00
48624;BME280;34422;45.802;16.114;2023-11-21T00:20:47;64576.44;;;7.36;100.00
48624;BME280;34422;45.802;16.114;2023-11-21T00:23:14;64582.91;;;7.50;100.00
48624;BME280;34422;45.802;16.114;2023-11-21T00:25:41;64562.47;;;7.26;100.00
48624;BME280;34422;45.802;16.114;2023-11-21T00:28:08;64566.25;;;7.29;100.00
48624;BME280;34422;45.802;16.114;2023-11-21T00:30:35;64590.91;;;7.53;100.00
48624;BME280;34422;45.802;16.114;2023-11-21T00:33:02;64573.78;;;7.41;100.00
48624;BME280;34422;45.802;16.114;2023-11-21T00:35:28;64578.03;;;7.40;100.00
48624;BME280;34422;45.802;16.114;2023-11-21T00:37:55;64593.63;;;7.55;100.00
48624;BME280;34422;45.802;16.114;2023-11-21T00:40:22;64588.78;;;7.51;100.00
48624;BME280;34422;45.802;16.114;2023-11-21T00:42:49;64595.75;;;7.55;100.00
48624;BME280;34422;45.802;16.114;2023-11-21T00:45:16;64584.50;;;7.46;100.00
48624;BME280;34422;45.802;16.114;2023-11-21T00:47:43;64589.88;;;7.52;100.00
48624;BME280;34422;45.802;16.114;2023-11-21T00:50:10;64577.53;;;7.42;100.00
48624;BME280;34422;45.802;16.114;2023-11-21T00:52:37;64588.81;;;7.56;100.00
48624;BME280;34422;45.802;16.114;2023-11-21T00:55:05;64594.16;;;7.56;100.00
48624;BME280;34422;45.802;16.114;2023-11-21T00:57:34;64595.78;;;7.60;100.00
48624;BME280;34422;45.802;16.114;2023-11-21T01:00:02;64587.19;;;7.54;100.00
48624;BME280;34422;45.802;16.114;2023-11-21T01:02:34;64566.25;;;7.29;100.00
48624;BME280;34422;45.802;16.114;2023-11-21T01:05:02;64547.97;;;7.12;100.00
48624;BME280;34422;45.802;16.114;2023-11-21T01:07:30;64542.63;;;7.07;100.00
48624;BME280;34422;45.802;16.114;2023-11-21T01:09:57;64537.28;;;7.04;100.00
48624;BME280;34422;45.802;16.114;2023-11-21T01:12:24;64544.25;;;7.11;100.00
48624;BME280;34422;45.802;16.114;2023-11-21T01:14:51;64557.66;;;7.21;100.00
48624;BME280;34422;45.802;16.114;2023-11-21T01:17:18;64558.22;;;7.24;100.00
48624;BME280;34422;45.802;16.114;2023-11-21T01:19:45;64568.94;;;7.32;100.00
48624;BME280;34422;45.802;16.114;2023-11-21T01:22:12;64562.53;;;7.33;100.00
48624;BME280;34422;45.802;16.114;2023-11-21T01:24:39;64538.34;;;7.05;100.00
48624;BME280;34422;45.802;16.114;2023-11-21T01:27:06;64556.59;;;7.20;100.00
48624;BME280;34422;45.802;16.114;2023-11-21T01:29:33;64568.94;;;7.34;100.00
48624;BME280;34422;45.802;16.114;2023-11-21T01:32:02;64556.06;;;7.22;100.00
48624;BME280;34422;45.802;16.114;2023-11-21T01:34:30;64554.44;;;7.18;100.00
48624;BME280;34422;45.802;16.114;2023-11-21T01:36:57;64566.22;;;7.27;100.00
48624;BME280;34422;45.802;16.114;2023-11-21T01:39:25;64557.13;;;7.23;100.00
48624;BME280;34422;45.802;16.114;2023-11-21T01:41:52;64568.38;;;7.31;100.00
48624;BME280;34422;45.802;16.114;2023-11-21T01:44:19;64564.09;;;7.30;100.00
48624;BME280;34422;45.802;16.114;2023-11-21T01:46:46;64584.50;;;7.46;100.00
48624;BME280;34422;45.802;16.114;2023-11-21T01:49:14;64592.00;;;7.54;100.00
48624;BME280;34422;45.802;16.114;2023-11-21T01:51:44;64594.66;;;7.54;100.00
48624;BME280;34422;45.802;16.114;2023-11-21T01:54:13;64587.72;;;7.49;100.00
48624;BME280;34422;45.802;16.114;2023-11-21T01:56:40;64600.06;;;7.61;100.00
48624;BME280;34422;45.802;16.114;2023-11-21T01:59:07;64591.97;;;7.48;100.00
48624;BME280;34422;45.802;16.114;2023-11-21T02:01:34;64589.31;;;7.48;100.00
48624;BME280;34422;45.802;16.114;2023-11-21T02:04:01;64585.06;;;7.49;100.00
48624;BME280;34422;45.802;16.114;2023-11-21T02:06:28;64601.09;;;7.57;100.00
48624;BME280;34422;45.802;16.114;2023-11-21T02:08:57;64579.63;;;7.39;100.00
48624;BME280;34422;45.802;16.114;2023-11-21T02:11:26;64586.66;;;7.48;100.00
48624;BME280;34422;45.802;16.114;2023-11-21T02:13:58;64581.81;;;7.46;100.00
48624;BME280;34422;45.802;16.114;2023-11-21T02:16:28;64587.19;;;7.52;100.00
48624;BME280;34422;45.802;16.114;2023-11-21T02:19:00;64584.50;;;7.46;100.00
48624;BME280;34422;45.802;16.114;2023-11-21T02:21:27;64586.09;;;7.45;100.00
48624;BME280;34422;45.802;16.114;2023-11-21T02:23:55;64582.34;;;7.44;100.00
48624;BME280;34422;45.802;16.114;2023-11-21T02:26:22;64567.84;;;7.28;100.00
48624;BME280;34422;45.802;16.114;2023-11-21T02:28:49;64573.22;;;7.36;100.00
48624;BME280;34422;45.802;16.114;2023-11-21T02:31:16;64586.66;;;7.48;100.00
48624;BME280;34422;45.802;16.114;2023-11-21T02:33:43;64588.28;;;7.55;100.00
48624;BME280;34422;45.802;16.114;2023-11-21T02:36:10;64592.03;;;7.59;100.00
48624;BME280;34422;45.802;16.114;2023-11-21T02:38:37;64590.38;;;7.52;100.00
48624;BME280;34422;45.802;16.114;2023-11-21T02:41:04;64590.94;;;7.55;100.00
48624;BME280;34422;45.802;16.114;2023-11-21T02:43:31;64587.19;;;7.52;100.00
48624;BME280;34422;45.802;16.114;2023-11-21T02:45:58;64602.75;;;7.64;100.00
48624;BME280;34422;45.802;16.114;2023-11-21T02:48:25;64597.94;;;7.62;100.00
48624;BME280;34422;45.802;16.114;2023-11-21T02:50:52;64617.25;;;7.77;100.00
48624;BME280;34422;45.802;16.114;2023-11-21T02:53:19;64632.78;;;7.87;100.00
48624;BME280;34422;45.802;16.114;2023-11-21T02:55:46;64607.59;;;7.73;100.00
48624;BME280;34422;45.802;16.114;2023-11-21T02:58:13;64608.66;;;7.69;100.00
48624;BME280;34422;45.802;16.114;2023-11-21T03:00:40;64605.41;;;7.64;100.00
48624;BME280;34422;45.802;16.114;2023-11-21T03:03:09;64636.59;;;7.98;100.00
48624;BME280;34422;45.802;16.114;2023-11-21T03:05:36;64618.34;;;7.83;100.00
48624;BME280;34422;45.802;16.114;2023-11-21T03:08:03;64628.53;;;7.93;100.00
48624;BME280;34422;45.802;16.114;2023-11-21T03:10:30;64633.34;;;7.95;100.00
48624;BME280;34422;45.802;16.114;2023-11-21T03:12:57;64649.47;;;8.08;100.00
48624;BME280;34422;45.802;16.114;2023-11-21T03:15:24;64653.22;;;8.11;100.00
48624;BME280;34422;45.802;16.114;2023-11-21T03:17:51;64647.31;;;8.08;100.00
48624;BME280;34422;45.802;16.114;2023-11-21T03:20:18;64651.63;;;8.12;100.00
48624;BME280;34422;45.802;16.114;2023-11-21T03:22:45;64652.19;;;8.15;100.00
48624;BME280;34422;45.802;16.114;2023-11-21T03:25:13;64650.00;;;8.08;100.00
48624;BME280;34422;45.802;16.114;2023-11-21T03:27:39;64639.25;;;7.98;100.00
48624;BME280;34422;45.802;16.114;2023-11-21T03:30:08;64662.91;;;8.26;100.00
48624;BME280;34422;45.802;16.114;2023-11-21T03:32:35;64676.31;;;8.31;100.00
48624;BME280;34422;45.802;16.114;2023-11-21T03:35:03;64667.19;;;8.25;100.00
48624;BME280;34422;45.802;16.114;2023-11-21T03:37:30;64640.88;;;8.00;100.00
48624;BME280;34422;45.802;16.114;2023-11-21T03:39:58;64674.75;;;8.37;100.00
48624;BME280;34422;45.802;16.114;2023-11-21T03:42:24;64677.97;;;8.37;100.00
48624;BME280;34422;45.802;16.114;2023-11-21T03:44:54;64667.19;;;8.25;100.00
48624;BME280;34422;45.802;16.114;2023-11-21T03:47:21;64669.91;;;8.30;100.00
48624;BME280;34422;45.802;16.114;2023-11-21T03:49:48;64659.69;;;8.17;100.00
48624;BME280;34422;45.802;16.114;2023-11-21T03:52:15;64675.81;;;8.33;100.00
48624;BME280;34422;45.802;16.114;2023-11-21T03:54:42;64683.88;;;8.40;100.00
48624;BME280;34422;45.802;16.114;2023-11-21T03:57:10;64666.16;;;8.29;100.00
48624;BME280;34422;45.802;16.114;2023-11-21T03:59:40;64681.16;;;8.33;100.00
48624;BME280;34422;45.802;16.114;2023-11-21T04:02:07;64690.31;;;8.44;100.00
48624;BME280;34422;45.802;16.114;2023-11-21T04:04:35;64676.88;;;8.34;100.00
48624;BME280;34422;45.802;16.114;2023-11-21T04:07:02;64678.53;;;8.40;100.00
48624;BME280;34422;45.802;16.114;2023-11-21T04:09:30;64670.97;;;8.31;100.00
48624;BME280;34422;45.802;16.114;2023-11-21T04:11:56;64675.81;;;8.33;100.00
48624;BME280;34422;45.802;16.114;2023-11-21T04:14:23;64681.19;;;8.38;100.00
48624;BME280;34422;45.802;16.114;2023-11-21T04:16:50;64675.81;;;8.33;100.00
48624;BME280;34422;45.802;16.114;2023-11-21T04:19:17;64691.38;;;8.45;100.00
48624;BME280;34422;45.802;16.114;2023-11-21T04:21:44;64686.03;;;8.47;100.00
48624;BME280;34422;45.802;16.114;2023-11-21T04:24:11;64693.53;;;8.47;100.00
48624;BME280;34422;45.802;16.114;2023-11-21T04:26:38;64685.50;;;8.44;100.00
48624;BME280;34422;45.802;16.114;2023-11-21T04:29:05;64685.47;;;8.42;100.00
48624;BME280;34422;45.802;16.114;2023-11-21T04:31:32;64683.88;;;8.43;100.00
48624;BME280;34422;45.802;16.114;2023-11-21T04:33:59;64677.94;;;8.35;100.00
48624;BME280;34422;45.802;16.114;2023-11-21T04:36:26;64689.78;;;8.46;100.00
48624;BME280;34422;45.802;16.114;2023-11-21T04:38:52;64690.88;;;8.47;100.00
48624;BME280;34422;45.802;16.114;2023-11-21T04:41:19;64690.31;;;8.49;100.00
48624;BME280;34422;45.802;16.114;2023-11-21T04:43:46;64689.78;;;8.46;100.00
48624;BME280;34422;45.802;16.114;2023-11-21T04:46:13;64689.25;;;8.48;100.00
48624;BME280;34422;45.802;16.114;2023-11-21T04:48:40;64662.38;;;8.23;100.00
48624;BME280;34422;45.802;16.114;2023-11-21T04:51:07;64690.84;;;8.44;100.00
48624;BME280;34422;45.802;16.114;2023-11-21T04:53:34;64674.75;;;8.34;100.00
48624;BME280;34422;45.802;16.114;2023-11-21T04:56:01;64688.16;;;8.44;100.00
48624;BME280;34422;45.802;16.114;2023-11-21T04:58:29;64667.75;;;8.28;100.00
48624;BME280;34422;45.802;16.114;2023-11-21T05:00:57;64663.41;;;8.21;100.00
48624;BME280;34422;45.802;16.114;2023-11-21T05:03:24;64688.72;;;8.45;100.00
48624;BME280;34422;45.802;16.114;2023-11-21T05:05:51;64683.31;;;8.40;100.00
48624;BME280;34422;45.802;16.114;2023-11-21T05:08:18;64675.81;;;8.35;100.00
48624;BME280;34422;45.802;16.114;2023-11-21T05:10:47;64672.56;;;8.30;100.00
48624;BME280;34422;45.802;16.114;2023-11-21T05:13:14;64670.97;;;8.31;100.00
48624;BME280;34422;45.802;16.114;2023-11-21T05:15:44;64659.69;;;8.17;100.00
48624;BME280;34422;45.802;16.114;2023-11-21T05:18:11;64654.28;;;8.12;100.00
48624;BME280;34422;45.802;16.114;2023-11-21T05:20:40;64670.47;;;8.33;100.00
48624;BME280;34422;45.802;16.114;2023-11-21T05:23:07;64667.19;;;8.25;100.00
48624;BME280;34422;45.802;16.114;2023-11-21T05:25:34;64639.28;;;8.03;100.00
48624;BME280;34422;45.802;16.114;2023-11-21T05:28:02;64648.91;;;8.07;100.00
48624;BME280;34422;45.802;16.114;2023-11-21T05:30:29;64661.84;;;8.25;100.00
48624;BME280;34422;45.802;16.114;2023-11-21T05:32:57;64639.25;;;7.96;100.00
48624;BME280;34422;45.802;16.114;2023-11-21T05:35:24;64659.16;;;8.22;100.00
48624;BME280;34422;45.802;16.114;2023-11-21T05:37:50;64651.06;;;8.07;100.00
48624;BME280;34422;45.802;16.114;2023-11-21T05:40:17;64658.06;;;8.16;100.00
48624;BME280;34422;45.802;16.114;2023-11-21T05:42:44;64658.59;;;8.16;100.00
48624;BME280;34422;45.802;16.114;2023-11-21T05:45:12;64663.44;;;8.18;100.00
48624;BME280;34422;45.802;16.114;2023-11-21T05:47:44;64654.84;;;8.15;100.00
48624;BME280;34422;45.802;16.114;2023-11-21T05:50:13;64659.69;;;8.17;100.00
48624;BME280;34422;45.802;16.114;2023-11-21T05:52:45;64648.91;;;8.07;100.00
48624;BME280;34422;45.802;16.114;2023-11-21T05:55:13;64665.56;;;8.23;100.00
48624;BME280;34422;45.802;16.114;2023-11-21T05:57:41;64667.19;;;8.25;100.00
48624;BME280;34422;45.802;16.114;2023-11-21T06:00:12;64665.03;;;8.23;100.00
48624;BME280;34422;45.802;16.114;2023-11-21T06:02:40;64667.19;;;8.25;100.00
48624;BME280;34422;45.802;16.114;2023-11-21T06:05:08;64666.13;;;8.24;100.00
48624;BME280;34422;45.802;16.114;2023-11-21T06:07:35;64640.88;;;8.02;100.00
48624;BME280;34422;45.802;16.114;2023-11-21T06:10:05;64655.41;;;8.18;100.00
48624;BME280;34422;45.802;16.114;2023-11-21T06:12:35;64671.50;;;8.29;100.00
48624;BME280;34422;45.802;16.114;2023-11-21T06:15:03;64667.75;;;8.28;100.00
48624;BME280;34422;45.802;16.114;2023-11-21T06:17:31;64667.75;;;8.28;100.00
48624;BME280;34422;45.802;16.114;2023-11-21T06:19:58;64654.81;;;8.10;100.00
48624;BME280;34422;45.802;16.114;2023-11-21T06:22:25;64647.88;;;8.11;100.00
48624;BME280;34422;45.802;16.114;2023-11-21T06:24:52;64674.75;;;8.32;100.00
48624;BME280;34422;45.802;16.114;2023-11-21T06:27:19;64671.50;;;8.29;100.00
48624;BME280;34422;45.802;16.114;2023-11-21T06:29:46;64660.75;;;8.18;100.00
48624;BME280;34422;45.802;16.114;2023-11-21T06:32:13;64679.53;;;8.34;100.00
48624;BME280;34422;45.802;16.114;2023-11-21T06:34:43;64668.25;;;8.26;100.00
48624;BME280;34422;45.802;16.114;2023-11-21T06:37:10;64677.41;;;8.34;100.00
48624;BME280;34422;45.802;16.114;2023-11-21T06:39:37;64657.53;;;8.15;100.00
48624;BME280;34422;45.802;16.114;2023-11-21T06:42:05;64683.34;;;8.42;100.00
48624;BME280;34422;45.802;16.114;2023-11-21T06:44:32;64666.69;;;8.29;100.00
48624;BME280;34422;45.802;16.114;2023-11-21T06:47:00;64683.84;;;8.38;100.00
48624;BME280;34422;45.802;16.114;2023-11-21T06:49:27;64689.25;;;8.45;100.00
48624;BME280;34422;45.802;16.114;2023-11-21T06:51:54;64674.75;;;8.34;100.00
48624;BME280;34422;45.802;16.114;2023-11-21T06:54:21;64681.22;;;8.43;100.00
48624;BME280;34422;45.802;16.114;2023-11-21T06:56:49;64696.75;;;8.52;100.00
48624;BME280;34422;45.802;16.114;2023-11-21T06:59:16;64677.94;;;8.35;100.00
48624;BME280;34422;45.802;16.114;2023-11-21T07:01:43;64698.41;;;8.59;100.00
48624;BME280;34422;45.802;16.114;2023-11-21T07:04:11;64688.16;;;8.44;100.00
48624;BME280;34422;45.802;16.114;2023-11-21T07:06:38;64703.22;;;8.61;100.00
48624;BME280;34422;45.802;16.114;2023-11-21T07:09:12;64689.25;;;8.48;100.00
48624;BME280;34422;45.802;16.114;2023-11-21T07:11:39;64687.63;;;8.44;100.00
48624;BME280;34422;45.802;16.114;2023-11-21T07:14:06;64690.88;;;8.47;100.00
48624;BME280;34422;45.802;16.114;2023-11-21T07:16:37;64688.19;;;8.47;100.00
48624;BME280;34422;45.802;16.114;2023-11-21T07:19:06;64676.34;;;8.33;100.00
48624;BME280;34422;45.802;16.114;2023-11-21T07:21:34;64674.75;;;8.32;100.00
48624;BME280;34422;45.802;16.114;2023-11-21T07:24:04;64697.81;;;8.51;100.00
48624;BME280;34422;45.802;16.114;2023-11-21T07:26:33;64673.09;;;8.30;100.00
48624;BME280;34422;45.802;16.114;2023-11-21T07:29:04;64675.84;;;8.38;100.00
48624;BME280;34422;45.802;16.114;2023-11-21T07:31:31;64675.28;;;8.32;100.00
48624;BME280;34422;45.802;16.114;2023-11-21T07:34:01;64660.75;;;8.21;100.00
48624;BME280;34422;45.802;16.114;2023-11-21T07:36:27;64650.00;;;8.08;100.00
48624;BME280;34422;45.802;16.114;2023-11-21T07:38:54;64674.75;;;8.32;100.00
48624;BME280;34422;45.802;16.114;2023-11-21T07:41:21;64663.97;;;8.21;100.00
48624;BME280;34422;45.802;16.114;2023-11-21T07:43:54;64668.25;;;8.26;100.00
48624;BME280;34422;45.802;16.114;2023-11-21T07:46:22;64656.44;;;8.14;100.00
48624;BME280;34422;45.802;16.114;2023-11-21T07:48:52;64648.38;;;8.04;100.00
48624;BME280;34422;45.802;16.114;2023-11-21T07:51:20;64643.56;;;8.02;100.00
48624;BME280;34422;45.802;16.114;2023-11-21T07:53:47;64638.22;;;8.02;100.00
48624;BME280;34422;45.802;16.114;2023-11-21T07:56:17;64634.97;;;7.94;100.00
48624;BME280;34422;45.802;16.114;2023-11-21T07:58:47;64643.03;;;8.04;100.00
48624;BME280;34422;45.802;16.114;2023-11-21T08:01:14;64641.94;;;8.01;100.00
48624;BME280;34422;45.802;16.114;2023-11-21T08:03:41;64660.72;;;8.16;100.00
48624;BME280;34422;45.802;16.114;2023-11-21T08:06:09;64654.34;;;8.17;100.00
48624;BME280;34422;45.802;16.114;2023-11-21T08:08:36;64645.72;;;8.07;100.00
48624;BME280;34422;45.802;16.114;2023-11-21T08:11:06;64657.53;;;8.15;100.00
48624;BME280;34422;45.802;16.114;2023-11-21T08:13:34;64659.69;;;8.17;100.00
48624;BME280;34422;45.802;16.114;2023-11-21T08:16:03;64650.56;;;8.14;100.00
48624;BME280;34422;45.802;16.114;2023-11-21T08:18:50;64658.06;;;8.16;100.00
48624;BME280;34422;45.802;16.114;2023-11-21T08:21:33;64635.00;;;7.99;100.00
48624;BME280;34422;45.802;16.114;2023-11-21T08:24:27;64648.38;;;8.07;100.00
48624;BME280;34422;45.802;16.114;2023-11-21T08:30:28;64653.78;;;8.17;100.00
48624;BME280;34422;45.802;16.114;2023-11-21T08:32:57;64658.59;;;8.16;100.00
48624;BME280;34422;45.802;16.114;2023-11-21T08:35:25;64680.13;;;8.42;100.00
48624;BME280;34422;45.802;16.114;2023-11-21T08:37:54;64669.94;;;8.32;100.00
48624;BME280;34422;45.802;16.114;2023-11-21T08:40:24;64659.69;;;8.20;100.00
48624;BME280;34422;45.802;16.114;2023-11-21T08:43:34;64644.13;;;8.05;100.00
48624;BME280;34422;45.802;16.114;2023-11-21T08:46:42;64632.84;;;7.97;100.00
48624;BME280;34422;45.802;16.114;2023-11-21T08:50:13;64635.50;;;7.97;100.00
48624;BME280;34422;45.802;16.114;2023-11-21T08:53:28;64662.88;;;8.20;100.00
48624;BME280;34422;45.802;16.114;2023-11-21T08:56:07;64646.25;;;8.10;100.00
48624;BME280;34422;45.802;16.114;2023-11-21T08:59:10;64667.72;;;8.25;100.00
48624;BME280;34422;45.802;16.114;2023-11-21T09:02:07;64628.53;;;7.93;100.00
48624;BME280;34422;45.802;16.114;2023-11-21T09:13:03;64636.56;;;7.96;100.00
48624;BME280;34422;45.802;16.114;2023-11-21T09:19:32;64667.75;;;8.30;100.00
48624;BME280;34422;45.802;16.114;2023-11-21T09:26:26;64672.03;;;8.29;100.00
48624;BME280;34422;45.802;16.114;2023-11-21T09:28:56;64681.72;;;8.41;100.00
48624;BME280;34422;45.802;16.114;2023-11-21T09:31:28;64692.44;;;8.48;100.00
48624;BME280;34422;45.802;16.114;2023-11-21T09:34:06;64685.50;;;8.44;100.00
48624;BME280;34422;45.802;16.114;2023-11-21T09:36:56;64687.63;;;8.44;100.00
48624;BME280;34422;45.802;16.114;2023-11-21T09:39:29;64687.66;;;8.46;100.00
48624;BME280;34422;45.802;16.114;2023-11-21T09:42:36;64677.44;;;8.37;100.00
48624;BME280;34422;45.802;16.114;2023-11-21T09:45:40;64710.75;;;8.68;100.00
48624;BME280;34422;45.802;16.114;2023-11-21T09:48:12;64717.22;;;8.74;100.00
48624;BME280;34422;45.802;16.114;2023-11-21T09:50:43;64726.84;;;8.81;100.00
48624;BME280;34422;45.802;16.114;2023-11-21T09:53:19;64730.09;;;8.84;100.00
48624;BME280;34422;45.802;16.114;2023-11-21T09:56:12;64729.53;;;8.81;100.00
48624;BME280;34422;45.802;16.114;2023-11-21T09:59:37;64719.88;;;8.74;100.00
48624;BME280;34422;45.802;16.114;2023-11-21T10:02:08;64735.97;;;8.89;100.00
48624;BME280;34422;45.802;16.114;2023-11-21T10:04:55;64740.84;;;8.94;100.00
48624;BME280;34422;45.802;16.114;2023-11-21T10:07:39;64740.31;;;8.99;100.00
48624;BME280;34422;45.802;16.114;2023-11-21T10:10:16;64745.13;;;8.98;100.00
48624;BME280;34422;45.802;16.114;2023-11-21T10:13:21;64752.13;;;9.05;100.00
48624;BME280;34422;45.802;16.114;2023-11-21T10:16:15;64728.50;;;8.85;100.00
48624;BME280;34422;45.802;16.114;2023-11-21T10:19:09;64761.25;;;9.16;100.00
48624;BME280;34422;45.802;16.114;2023-11-21T10:22:29;64738.72;;;8.97;100.00
48624;BME280;34422;45.802;16.114;2023-11-21T10:26:06;64742.44;;;8.93;100.00
48624;BME280;34422;45.802;16.114;2023-11-21T10:29:08;64736.53;;;8.93;100.00
48624;BME280;34422;45.802;16.114;2023-11-21T10:31:43;64770.41;;;9.22;100.00
48624;BME280;34422;45.802;16.114;2023-11-21T10:34:19;64749.44;;;9.05;100.00
48624;BME280;34422;45.802;16.114;2023-11-21T10:36:46;64774.19;;;9.28;100.00
48624;BME280;34422;45.802;16.114;2023-11-21T10:39:16;64774.72;;;9.26;100.00
48624;BME280;34422;45.802;16.114;2023-11-21T10:45:38;64778.47;;;9.32;100.00
48624;BME280;34422;45.802;16.114;2023-11-21T11:29:42;64805.91;;;9.55;100.00
48624;BME280;34422;45.802;16.114;2023-11-21T11:53:40;64840.31;;;9.90;100.00
48624;BME280;34422;45.802;16.114;2023-11-21T11:56:31;64834.94;;;9.83;100.00
48624;BME280;34422;45.802;16.114;2023-11-21T11:59:07;64827.44;;;9.81;100.00
48624;BME280;34422;45.802;16.114;2023-11-21T12:01:56;64833.34;;;9.84;100.00
48624;BME280;34422;45.802;16.114;2023-11-21T12:04:27;64840.34;;;9.93;100.00
48624;BME280;34422;45.802;16.114;2023-11-21T12:07:10;64830.13;;;9.83;100.00
48624;BME280;34422;45.802;16.114;2023-11-21T12:22:54;64846.78;;;9.94;100.00
48624;BME280;34422;45.802;16.114;2023-11-21T12:25:44;64843.53;;;9.91;100.00
48624;BME280;34422;45.802;16.114;2023-11-21T12:28:59;64826.88;;;9.78;100.00
48624;BME280;34422;45.802;16.114;2023-11-21T12:36:24;64834.94;;;9.85;100.00
48624;BME280;34422;45.802;16.114;2023-11-21T12:43:21;64823.09;;;9.72;100.00
48624;BME280;34422;45.802;16.114;2023-11-21T12:46:53;64819.34;;;9.68;100.00
48624;BME280;34422;45.802;16.114;2023-11-21T12:50:03;64820.97;;;9.70;100.00
48624;BME280;34422;45.802;16.114;2023-11-21T12:53:13;64809.66;;;9.61;100.00
48624;BME280;34422;45.802;16.114;2023-11-21T13:00:08;64820.41;;;9.72;100.00
48624;BME280;34422;45.802;16.114;2023-11-21T13:06:51;64814.53;;;9.69;100.00
48624;BME280;34422;45.802;16.114;2023-11-21T13:13:40;64810.75;;;9.65;100.00
48624;BME280;34422;45.802;16.114;2023-11-21T13:16:35;64815.59;;;9.70;100.00
48624;BME280;34422;45.802;16.114;2023-11-21T13:19:15;64811.28;;;9.63;100.00
48624;BME280;34422;45.802;16.114;2023-11-21T13:22:07;64816.66;;;9.66;100.00
48624;BME280;34422;45.802;16.114;2023-11-21T13:24:51;64822.00;;;9.71;100.00
48624;BME280;34422;45.802;16.114;2023-11-21T13:27:48;64823.66;;;9.75;100.00
48624;BME280;34422;45.802;16.114;2023-11-21T13:30:47;64815.03;;;9.64;100.00
48624;BME280;34422;45.802;16.114;2023-11-21T13:33:18;64831.19;;;9.79;100.00
48624;BME280;34422;45.802;16.114;2023-11-21T13:36:14;64812.38;;;9.67;100.00
48624;BME280;34422;45.802;16.114;2023-11-21T13:53:48;64821.47;;;9.68;100.00
48624;BME280;34422;45.802;16.114;2023-11-21T14:00:18;64788.66;;;9.34;100.00
48624;BME280;34422;45.802;16.114;2023-11-21T14:03:16;64815.56;;;9.65;100.00
48624;BME280;34422;45.802;16.114;2023-11-21T14:25:36;64794.09;;;9.49;100.00
48624;BME280;34422;45.802;16.114;2023-11-21T14:28:06;64790.31;;;9.41;100.00
48624;BME280;34422;45.802;16.114;2023-11-21T14:33:58;64792.44;;;9.45;100.00
48624;BME280;34422;45.802;16.114;2023-11-21T15:11:55;64768.25;;;9.20;100.00
48624;BME280;34422;45.802;16.114;2023-11-21T15:18:17;64732.22;;;8.88;100.00
48624;BME280;34422;45.802;16.114;2023-11-21T15:21:06;64756.41;;;9.09;100.00
48624;BME280;34422;45.802;16.114;2023-11-21T15:24:04;64759.63;;;9.09;100.00
48624;BME280;34422;45.802;16.114;2023-11-21T15:27:36;64748.91;;;9.02;100.00
48624;BME280;34422;45.802;16.114;2023-11-21T15:30:11;64737.09;;;8.96;100.00
48624;BME280;34422;45.802;16.114;2023-11-21T15:48:23;64735.47;;;8.91;100.00
48624;BME280;34422;45.802;16.114;2023-11-21T15:55:18;64731.72;;;8.90;100.00
48624;BME280;34422;45.802;16.114;2023-11-21T16:02:57;64730.63;;;8.84;100.00
48624;BME280;34422;45.802;16.114;2023-11-21T16:05:29;64725.28;;;8.84;100.00
48624;BME280;34422;45.802;16.114;2023-11-21T16:08:08;64723.66;;;8.80;100.00
48624;BME280;34422;45.802;16.114;2023-11-21T16:10:55;64691.94;;;8.53;100.00
48624;BME280;34422;45.802;16.114;2023-11-21T16:13:55;64719.88;;;8.74;100.00
48624;BME280;34422;45.802;16.114;2023-11-21T16:17:01;64706.44;;;8.64;100.00
48624;BME280;34422;45.802;16.114;2023-11-21T16:19:41;64701.59;;;8.54;100.00
48624;BME280;34422;45.802;16.114;2023-11-21T16:22:29;64713.41;;;8.68;100.00
48624;BME280;34422;45.802;16.114;2023-11-21T16:24:59;64707.00;;;8.67;100.00
48624;BME280;34422;45.802;16.114;2023-11-21T16:27:40;64690.88;;;8.47;100.00
48624;BME280;34422;45.802;16.114;2023-11-21T16:30:20;64698.94;;;8.57;100.00
48624;BME280;34422;45.802;16.114;2023-11-21T16:33:02;64701.59;;;8.57;100.00
48624;BME280;34422;45.802;16.114;2023-11-21T16:35:30;64694.63;;;8.53;100.00
48624;BME280;34422;45.802;16.114;2023-11-21T16:38:03;64692.47;;;8.46;100.00
48624;BME280;34422;45.802;16.114;2023-11-21T16:40:34;64685.50;;;8.44;100.00
48624;BME280;34422;45.802;16.114;2023-11-21T16:43:18;64697.28;;;8.53;100.00
48624;BME280;34422;45.802;16.114;2023-11-21T16:45:53;64688.19;;;8.47;100.00
48624;BME280;34422;45.802;16.114;2023-11-21T16:48:28;64680.13;;;8.42;100.00
48624;BME280;34422;45.802;16.114;2023-11-21T16:50:55;64695.16;;;8.51;100.00
48624;BME280;34422;45.802;16.114;2023-11-21T16:53:30;64686.03;;;8.45;100.00
48624;BME280;34422;45.802;16.114;2023-11-21T16:56:01;64655.94;;;8.19;100.00
48624;BME280;34422;45.802;16.114;2023-11-21T16:58:33;64679.03;;;8.36;100.00
48624;BME280;34422;45.802;16.114;2023-11-21T17:01:08;64671.50;;;8.31;100.00
48624;BME280;34422;45.802;16.114;2023-11-21T17:03:42;64668.31;;;8.31;100.00
48624;BME280;34422;45.802;16.114;2023-11-21T17:06:14;64660.75;;;8.18;100.00
48624;BME280;34422;45.802;16.114;2023-11-21T17:08:50;64660.75;;;8.18;100.00
48624;BME280;34422;45.802;16.114;2023-11-21T17:11:17;64666.13;;;8.24;100.00